sensor_id;sensor_type;location;lat;lon;timestamp;P1;durP1;ratioP1;P2;durP2;ratioP2
33902;SDS011;20194;50.950;5.346;2022-12-28T00:02:03;7.50;;;3.15;;
33902;SDS011;20194;50.950;5.346;2022-12-28T00:04:28;11.15;;;3.60;;
33902;SDS011;20194;50.950;5.346;2022-12-28T00:06:54;8.77;;;3.25;;
33902;SDS011;20194;50.950;5.346;2022-12-28T00:09:20;7.55;;;3.40;;
33902;SDS011;20194;50.950;5.346;2022-12-28T00:11:46;6.55;;;3.53;;
33902;SDS011;20194;50.950;5.346;2022-12-28T00:14:12;10.18;;;4.03;;
33902;SDS011;20194;50.950;5.346;2022-12-28T00:16:38;9.18;;;3.65;;
33902;SDS011;20194;50.950;5.346;2022-12-28T00:19:09;13.80;;;3.67;;
33902;SDS011;20194;50.950;5.346;2022-12-28T00:21:36;14.57;;;3.45;;
33902;SDS011;20194;50.950;5.346;2022-12-28T00:24:02;6.28;;;3.17;;
33902;SDS011;20194;50.950;5.346;2022-12-28T00:26:29;8.30;;;3.35;;
33902;SDS011;20194;50.950;5.346;2022-12-28T00:28:57;7.70;;;3.30;;
33902;SDS011;20194;50.950;5.346;2022-12-28T00:31:23;5.88;;;3.28;;
33902;SDS011;20194;50.950;5.346;2022-12-28T00:33:49;10.65;;;3.13;;
33902;SDS011;20194;50.950;5.346;2022-12-28T00:36:15;8.68;;;2.65;;
33902;SDS011;20194;50.950;5.346;2022-12-28T00:38:41;9.70;;;3.10;;
33902;SDS011;20194;50.950;5.346;2022-12-28T00:41:08;12.10;;;2.85;;
33902;SDS011;20194;50.950;5.346;2022-12-28T00:43:34;8.02;;;2.78;;
33902;SDS011;20194;50.950;5.346;2022-12-28T00:46:00;9.55;;;2.42;;
33902;SDS011;20194;50.950;5.346;2022-12-28T00:48:26;3.08;;;2.08;;
33902;SDS011;20194;50.950;5.346;2022-12-28T00:50:52;8.52;;;3.65;;
33902;SDS011;20194;50.950;5.346;2022-12-28T00:53:32;5.45;;;2.20;;
33902;SDS011;20194;50.950;5.346;2022-12-28T00:56:08;7.10;;;2.78;;
33902;SDS011;20194;50.950;5.346;2022-12-28T00:58:34;7.55;;;2.92;;
33902;SDS011;20194;50.950;5.346;2022-12-28T01:01:01;5.70;;;2.90;;
33902;SDS011;20194;50.950;5.346;2022-12-28T01:03:27;4.32;;;2.75;;
33902;SDS011;20194;50.950;5.346;2022-12-28T01:05:53;10.80;;;3.25;;
33902;SDS011;20194;50.950;5.346;2022-12-28T01:08:19;7.05;;;2.63;;
33902;SDS011;20194;50.950;5.346;2022-12-28T01:10:45;5.43;;;2.95;;
33902;SDS011;20194;50.950;5.346;2022-12-28T01:13:11;14.73;;;3.17;;
33902;SDS011;20194;50.950;5.346;2022-12-28T01:15:37;4.80;;;2.63;;
33902;SDS011;20194;50.950;5.346;2022-12-28T01:18:03;8.68;;;2.80;;
33902;SDS011;20194;50.950;5.346;2022-12-28T01:20:29;4.93;;;3.10;;
33902;SDS011;20194;50.950;5.346;2022-12-28T01:22:55;3.90;;;2.83;;
33902;SDS011;20194;50.950;5.346;2022-12-28T01:25:20;6.53;;;2.00;;
33902;SDS011;20194;50.950;5.346;2022-12-28T01:27:46;5.55;;;2.30;;
33902;SDS011;20194;50.950;5.346;2022-12-28T01:30:12;5.63;;;2.58;;
33902;SDS011;20194;50.950;5.346;2022-12-28T01:32:39;11.32;;;2.58;;
33902;SDS011;20194;50.950;5.346;2022-12-28T01:35:05;7.47;;;2.50;;
33902;SDS011;20194;50.950;5.346;2022-12-28T01:37:31;9.10;;;3.25;;
33902;SDS011;20194;50.950;5.346;2022-12-28T01:39:57;3.00;;;2.17;;
33902;SDS011;20194;50.950;5.346;2022-12-28T01:42:23;5.13;;;2.60;;
33902;SDS011;20194;50.950;5.346;2022-12-28T01:44:51;7.20;;;2.60;;
33902;SDS011;20194;50.950;5.346;2022-12-28T01:47:18;4.60;;;2.40;;
33902;SDS011;20194;50.950;5.346;2022-12-28T01:55:17;5.07;;;2.63;;
33902;SDS011;20194;50.950;5.346;2022-12-28T01:57:51;6.57;;;2.78;;
33902;SDS011;20194;50.950;5.346;2022-12-28T02:00:37;11.73;;;2.90;;
33902;SDS011;20194;50.950;5.346;2022-12-28T02:03:04;9.68;;;3.35;;
33902;SDS011;20194;50.950;5.346;2022-12-28T02:05:42;5.32;;;2.25;;
33902;SDS011;20194;50.950;5.346;2022-12-28T02:08:10;6.45;;;2.60;;
33902;SDS011;20194;50.950;5.346;2022-12-28T02:10:37;8.77;;;2.97;;
33902;SDS011;20194;50.950;5.346;2022-12-28T02:13:06;6.85;;;2.88;;
33902;SDS011;20194;50.950;5.346;2022-12-28T02:15:33;4.32;;;2.08;;
33902;SDS011;20194;50.950;5.346;2022-12-28T02:17:59;7.85;;;2.45;;
33902;SDS011;20194;50.950;5.346;2022-12-28T02:20:28;3.60;;;2.47;;
33902;SDS011;20194;50.950;5.346;2022-12-28T02:26:07;5.63;;;2.55;;
33902;SDS011;20194;50.950;5.346;2022-12-28T02:34:23;6.85;;;2.58;;
33902;SDS011;20194;50.950;5.346;2022-12-28T02:37:00;6.15;;;2.22;;
33902;SDS011;20194;50.950;5.346;2022-12-28T02:39:32;5.63;;;2.97;;
33902;SDS011;20194;50.950;5.346;2022-12-28T02:42:06;5.90;;;2.83;;
33902;SDS011;20194;50.950;5.346;2022-12-28T02:44:34;5.68;;;2.10;;
33902;SDS011;20194;50.950;5.346;2022-12-28T02:47:19;9.18;;;2.58;;
33902;SDS011;20194;50.950;5.346;2022-12-28T02:50:04;5.85;;;2.50;;
33902;SDS011;20194;50.950;5.346;2022-12-28T03:10:13;8.63;;;2.30;;
33902;SDS011;20194;50.950;5.346;2022-12-28T03:12:49;8.50;;;2.60;;
33902;SDS011;20194;50.950;5.346;2022-12-28T03:15:29;8.15;;;2.75;;
33902;SDS011;20194;50.950;5.346;2022-12-28T03:18:06;4.50;;;2.50;;
33902;SDS011;20194;50.950;5.346;2022-12-28T03:20:58;5.45;;;2.50;;
33902;SDS011;20194;50.950;5.346;2022-12-28T03:23:46;5.55;;;2.17;;
33902;SDS011;20194;50.950;5.346;2022-12-28T03:26:32;2.80;;;2.22;;
33902;SDS011;20194;50.950;5.346;2022-12-28T03:29:18;7.47;;;2.78;;
33902;SDS011;20194;50.950;5.346;2022-12-28T03:32:05;2.60;;;2.05;;
33902;SDS011;20194;50.950;5.346;2022-12-28T03:34:32;10.50;;;2.80;;
33902;SDS011;20194;50.950;5.346;2022-12-28T03:36:59;11.23;;;2.65;;
33902;SDS011;20194;50.950;5.346;2022-12-28T03:39:41;2.95;;;1.63;;
33902;SDS011;20194;50.950;5.346;2022-12-28T03:42:16;6.93;;;2.45;;
33902;SDS011;20194;50.950;5.346;2022-12-28T03:45:05;5.53;;;2.17;;
33902;SDS011;20194;50.950;5.346;2022-12-28T03:47:48;6.50;;;2.15;;
33902;SDS011;20194;50.950;5.346;2022-12-28T03:50:16;4.03;;;2.42;;
33902;SDS011;20194;50.950;5.346;2022-12-28T03:52:44;5.18;;;2.13;;
33902;SDS011;20194;50.950;5.346;2022-12-28T03:55:10;9.70;;;2.65;;
33902;SDS011;20194;50.950;5.346;2022-12-28T03:57:38;6.88;;;2.30;;
33902;SDS011;20194;50.950;5.346;2022-12-28T04:00:04;3.17;;;2.30;;
33902;SDS011;20194;50.950;5.346;2022-12-28T04:02:31;7.03;;;2.00;;
33902;SDS011;20194;50.950;5.346;2022-12-28T04:04:56;9.63;;;2.33;;
33902;SDS011;20194;50.950;5.346;2022-12-28T04:07:22;11.20;;;2.45;;
33902;SDS011;20194;50.950;5.346;2022-12-28T04:09:49;7.70;;;3.08;;
33902;SDS011;20194;50.950;5.346;2022-12-28T04:12:15;10.32;;;2.35;;
33902;SDS011;20194;50.950;5.346;2022-12-28T04:14:41;4.97;;;2.47;;
33902;SDS011;20194;50.950;5.346;2022-12-28T04:17:06;6.15;;;2.25;;
33902;SDS011;20194;50.950;5.346;2022-12-28T04:19:32;6.68;;;2.17;;
33902;SDS011;20194;50.950;5.346;2022-12-28T04:21:58;10.48;;;2.63;;
33902;SDS011;20194;50.950;5.346;2022-12-28T04:24:23;8.60;;;2.53;;
33902;SDS011;20194;50.950;5.346;2022-12-28T04:26:49;10.93;;;2.75;;
33902;SDS011;20194;50.950;5.346;2022-12-28T04:29:15;9.60;;;2.20;;
33902;SDS011;20194;50.950;5.346;2022-12-28T04:31:41;6.97;;;2.28;;
33902;SDS011;20194;50.950;5.346;2022-12-28T04:34:06;7.68;;;1.88;;
33902;SDS011;20194;50.950;5.346;2022-12-28T04:36:32;5.60;;;2.63;;
33902;SDS011;20194;50.950;5.346;2022-12-28T04:38:58;6.93;;;2.22;;
33902;SDS011;20194;50.950;5.346;2022-12-28T04:41:24;4.50;;;1.60;;
33902;SDS011;20194;50.950;5.346;2022-12-28T04:43:50;11.98;;;2.50;;
33902;SDS011;20194;50.950;5.346;2022-12-28T04:46:18;4.90;;;1.90;;
33902;SDS011;20194;50.950;5.346;2022-12-28T04:48:43;4.50;;;2.53;;
33902;SDS011;20194;50.950;5.346;2022-12-28T04:51:16;7.20;;;2.42;;
33902;SDS011;20194;50.950;5.346;2022-12-28T04:53:44;4.63;;;2.13;;
33902;SDS011;20194;50.950;5.346;2022-12-28T04:56:10;6.03;;;2.22;;
33902;SDS011;20194;50.950;5.346;2022-12-28T04:58:37;7.35;;;2.50;;
33902;SDS011;20194;50.950;5.346;2022-12-28T05:01:04;7.35;;;2.13;;
33902;SDS011;20194;50.950;5.346;2022-12-28T05:03:32;5.32;;;2.08;;
33902;SDS011;20194;50.950;5.346;2022-12-28T05:06:01;6.85;;;2.03;;
33902;SDS011;20194;50.950;5.346;2022-12-28T05:08:30;6.10;;;1.83;;
33902;SDS011;20194;50.950;5.346;2022-12-28T05:11:03;2.38;;;1.50;;
33902;SDS011;20194;50.950;5.346;2022-12-28T05:13:30;6.40;;;1.58;;
33902;SDS011;20194;50.950;5.346;2022-12-28T05:16:03;6.10;;;2.33;;
33902;SDS011;20194;50.950;5.346;2022-12-28T05:18:30;4.68;;;2.03;;
33902;SDS011;20194;50.950;5.346;2022-12-28T05:21:00;3.53;;;2.17;;
33902;SDS011;20194;50.950;5.346;2022-12-28T05:23:28;7.65;;;2.35;;
33902;SDS011;20194;50.950;5.346;2022-12-28T05:25:55;7.95;;;1.65;;
33902;SDS011;20194;50.950;5.346;2022-12-28T05:28:21;5.78;;;1.85;;
33902;SDS011;20194;50.950;5.346;2022-12-28T05:30:47;3.17;;;1.70;;
33902;SDS011;20194;50.950;5.346;2022-12-28T05:33:13;4.95;;;1.92;;
33902;SDS011;20194;50.950;5.346;2022-12-28T05:35:38;2.28;;;1.23;;
33902;SDS011;20194;50.950;5.346;2022-12-28T05:38:04;4.60;;;1.88;;
33902;SDS011;20194;50.950;5.346;2022-12-28T05:40:30;3.53;;;1.55;;
33902;SDS011;20194;50.950;5.346;2022-12-28T05:42:56;0.98;;;0.73;;
33902;SDS011;20194;50.950;5.346;2022-12-28T05:45:21;4.43;;;1.17;;
33902;SDS011;20194;50.950;5.346;2022-12-28T05:47:47;2.50;;;1.50;;
33902;SDS011;20194;50.950;5.346;2022-12-28T05:50:13;1.67;;;1.17;;
33902;SDS011;20194;50.950;5.346;2022-12-28T05:52:39;1.15;;;0.85;;
33902;SDS011;20194;50.950;5.346;2022-12-28T05:55:05;2.20;;;1.30;;
33902;SDS011;20194;50.950;5.346;2022-12-28T05:57:31;6.00;;;1.45;;
33902;SDS011;20194;50.950;5.346;2022-12-28T05:59:56;1.52;;;0.90;;
33902;SDS011;20194;50.950;5.346;2022-12-28T06:02:22;2.55;;;1.65;;
33902;SDS011;20194;50.950;5.346;2022-12-28T06:04:51;2.70;;;1.20;;
33902;SDS011;20194;50.950;5.346;2022-12-28T06:07:17;6.00;;;1.55;;
33902;SDS011;20194;50.950;5.346;2022-12-28T06:09:43;2.55;;;1.33;;
33902;SDS011;20194;50.950;5.346;2022-12-28T06:12:09;3.40;;;1.58;;
33902;SDS011;20194;50.950;5.346;2022-12-28T06:14:35;1.50;;;1.10;;
33902;SDS011;20194;50.950;5.346;2022-12-28T06:17:00;3.20;;;1.70;;
33902;SDS011;20194;50.950;5.346;2022-12-28T06:19:26;3.83;;;1.83;;
33902;SDS011;20194;50.950;5.346;2022-12-28T06:21:52;5.25;;;1.55;;
33902;SDS011;20194;50.950;5.346;2022-12-28T06:24:17;3.97;;;1.55;;
33902;SDS011;20194;50.950;5.346;2022-12-28T06:26:43;4.25;;;1.02;;
33902;SDS011;20194;50.950;5.346;2022-12-28T06:29:10;5.15;;;1.10;;
33902;SDS011;20194;50.950;5.346;2022-12-28T06:31:37;3.65;;;1.23;;
33902;SDS011;20194;50.950;5.346;2022-12-28T06:34:05;3.03;;;0.90;;
33902;SDS011;20194;50.950;5.346;2022-12-28T06:39:07;1.38;;;1.10;;
33902;SDS011;20194;50.950;5.346;2022-12-28T06:41:34;1.60;;;1.30;;
33902;SDS011;20194;50.950;5.346;2022-12-28T06:44:01;1.92;;;1.00;;
33902;SDS011;20194;50.950;5.346;2022-12-28T06:46:33;3.72;;;1.17;;
33902;SDS011;20194;50.950;5.346;2022-12-28T06:48:59;3.60;;;0.88;;
33902;SDS011;20194;50.950;5.346;2022-12-28T06:51:27;2.08;;;1.58;;
33902;SDS011;20194;50.950;5.346;2022-12-28T06:53:54;6.82;;;1.25;;
33902;SDS011;20194;50.950;5.346;2022-12-28T06:56:22;4.70;;;1.48;;
33902;SDS011;20194;50.950;5.346;2022-12-28T06:58:49;5.05;;;1.33;;
33902;SDS011;20194;50.950;5.346;2022-12-28T07:01:20;12.90;;;2.47;;
33902;SDS011;20194;50.950;5.346;2022-12-28T07:03:50;3.45;;;1.30;;
33902;SDS011;20194;50.950;5.346;2022-12-28T07:06:19;5.30;;;1.67;;
33902;SDS011;20194;50.950;5.346;2022-12-28T07:08:47;1.10;;;1.00;;
33902;SDS011;20194;50.950;5.346;2022-12-28T07:11:14;2.33;;;1.30;;
33902;SDS011;20194;50.950;5.346;2022-12-28T07:13:42;2.63;;;1.52;;
33902;SDS011;20194;50.950;5.346;2022-12-28T07:16:15;7.15;;;1.95;;
33902;SDS011;20194;50.950;5.346;2022-12-28T07:18:42;2.85;;;1.30;;
33902;SDS011;20194;50.950;5.346;2022-12-28T07:21:12;2.28;;;1.13;;
33902;SDS011;20194;50.950;5.346;2022-12-28T07:23:40;1.20;;;1.10;;
33902;SDS011;20194;50.950;5.346;2022-12-28T07:26:09;5.97;;;1.73;;
33902;SDS011;20194;50.950;5.346;2022-12-28T07:28:40;2.95;;;1.77;;
33902;SDS011;20194;50.950;5.346;2022-12-28T07:31:08;4.28;;;1.42;;
33902;SDS011;20194;50.950;5.346;2022-12-28T07:33:41;3.70;;;1.77;;
33902;SDS011;20194;50.950;5.346;2022-12-28T07:36:09;9.05;;;1.92;;
33902;SDS011;20194;50.950;5.346;2022-12-28T07:38:37;4.10;;;1.70;;
33902;SDS011;20194;50.950;5.346;2022-12-28T07:41:07;8.20;;;1.67;;
33902;SDS011;20194;50.950;5.346;2022-12-28T07:43:34;6.15;;;1.52;;
33902;SDS011;20194;50.950;5.346;2022-12-28T07:46:01;3.60;;;1.63;;
33902;SDS011;20194;50.950;5.346;2022-12-28T07:48:29;5.63;;;1.98;;
33902;SDS011;20194;50.950;5.346;2022-12-28T07:51:04;5.47;;;1.73;;
33902;SDS011;20194;50.950;5.346;2022-12-28T07:53:53;6.75;;;1.70;;
33902;SDS011;20194;50.950;5.346;2022-12-28T07:56:20;3.92;;;1.88;;
33902;SDS011;20194;50.950;5.346;2022-12-28T07:58:47;4.10;;;1.92;;
33902;SDS011;20194;50.950;5.346;2022-12-28T08:01:15;6.47;;;2.20;;
33902;SDS011;20194;50.950;5.346;2022-12-28T08:03:42;4.80;;;1.45;;
33902;SDS011;20194;50.950;5.346;2022-12-28T08:06:08;7.03;;;1.70;;
33902;SDS011;20194;50.950;5.346;2022-12-28T08:08:42;6.30;;;1.90;;
33902;SDS011;20194;50.950;5.346;2022-12-28T08:11:15;9.68;;;1.90;;
33902;SDS011;20194;50.950;5.346;2022-12-28T08:13:42;7.03;;;2.13;;
33902;SDS011;20194;50.950;5.346;2022-12-28T08:16:11;4.53;;;1.52;;
33902;SDS011;20194;50.950;5.346;2022-12-28T08:18:38;4.97;;;1.85;;
33902;SDS011;20194;50.950;5.346;2022-12-28T08:21:07;2.25;;;1.60;;
33902;SDS011;20194;50.950;5.346;2022-12-28T08:23:36;4.28;;;1.88;;
33902;SDS011;20194;50.950;5.346;2022-12-28T08:26:08;7.28;;;2.00;;
33902;SDS011;20194;50.950;5.346;2022-12-28T08:28:34;2.88;;;2.13;;
33902;SDS011;20194;50.950;5.346;2022-12-28T08:31:09;5.88;;;1.63;;
33902;SDS011;20194;50.950;5.346;2022-12-28T08:33:37;1.98;;;1.55;;
33902;SDS011;20194;50.950;5.346;2022-12-28T08:36:03;2.33;;;1.38;;
33902;SDS011;20194;50.950;5.346;2022-12-28T08:38:30;5.88;;;1.67;;
33902;SDS011;20194;50.950;5.346;2022-12-28T08:40:56;3.58;;;1.40;;
33902;SDS011;20194;50.950;5.346;2022-12-28T08:43:23;4.88;;;2.75;;
33902;SDS011;20194;50.950;5.346;2022-12-28T08:45:57;4.60;;;1.63;;
33902;SDS011;20194;50.950;5.346;2022-12-28T08:48:28;4.38;;;1.52;;
33902;SDS011;20194;50.950;5.346;2022-12-28T08:50:54;3.75;;;1.50;;
33902;SDS011;20194;50.950;5.346;2022-12-28T08:53:24;2.53;;;1.35;;
33902;SDS011;20194;50.950;5.346;2022-12-28T08:55:50;2.92;;;1.67;;
33902;SDS011;20194;50.950;5.346;2022-12-28T08:58:16;2.85;;;1.40;;
33902;SDS011;20194;50.950;5.346;2022-12-28T09:00:42;3.03;;;1.40;;
33902;SDS011;20194;50.950;5.346;2022-12-28T09:03:08;4.28;;;1.50;;
33902;SDS011;20194;50.950;5.346;2022-12-28T09:05:37;1.95;;;1.52;;
33902;SDS011;20194;50.950;5.346;2022-12-28T09:08:03;2.35;;;1.23;;
33902;SDS011;20194;50.950;5.346;2022-12-28T09:10:30;1.63;;;1.33;;
33902;SDS011;20194;50.950;5.346;2022-12-28T09:12:56;2.72;;;1.63;;
33902;SDS011;20194;50.950;5.346;2022-12-28T09:15:21;5.75;;;2.28;;
33902;SDS011;20194;50.950;5.346;2022-12-28T09:17:48;1.30;;;1.00;;
33902;SDS011;20194;50.950;5.346;2022-12-28T09:20:13;4.35;;;1.55;;
33902;SDS011;20194;50.950;5.346;2022-12-28T09:22:39;8.82;;;1.52;;
33902;SDS011;20194;50.950;5.346;2022-12-28T09:25:05;1.65;;;1.27;;
33902;SDS011;20194;50.950;5.346;2022-12-28T09:27:31;1.60;;;1.20;;
33902;SDS011;20194;50.950;5.346;2022-12-28T09:29:57;3.60;;;1.58;;
33902;SDS011;20194;50.950;5.346;2022-12-28T09:32:23;2.42;;;1.23;;
33902;SDS011;20194;50.950;5.346;2022-12-28T09:34:50;4.13;;;1.25;;
33902;SDS011;20194;50.950;5.346;2022-12-28T09:37:16;4.32;;;1.50;;
33902;SDS011;20194;50.950;5.346;2022-12-28T09:39:42;2.55;;;1.20;;
33902;SDS011;20194;50.950;5.346;2022-12-28T09:42:15;1.88;;;1.45;;
33902;SDS011;20194;50.950;5.346;2022-12-28T09:44:48;1.50;;;1.13;;
33902;SDS011;20194;50.950;5.346;2022-12-28T09:47:43;1.92;;;1.38;;
33902;SDS011;20194;50.950;5.346;2022-12-28T09:55:29;3.38;;;1.38;;
33902;SDS011;20194;50.950;5.346;2022-12-28T09:57:56;4.18;;;1.40;;
33902;SDS011;20194;50.950;5.346;2022-12-28T10:00:24;2.17;;;1.30;;
33902;SDS011;20194;50.950;5.346;2022-12-28T10:03:10;2.08;;;1.05;;
33902;SDS011;20194;50.950;5.346;2022-12-28T10:05:40;3.55;;;1.02;;
33902;SDS011;20194;50.950;5.346;2022-12-28T10:08:08;3.83;;;1.85;;
33902;SDS011;20194;50.950;5.346;2022-12-28T10:10:40;2.15;;;1.10;;
33902;SDS011;20194;50.950;5.346;2022-12-28T10:13:42;6.25;;;0.93;;
33902;SDS011;20194;50.950;5.346;2022-12-28T10:16:03;6.00;;;1.20;;
33902;SDS011;20194;50.950;5.346;2022-12-28T10:18:30;4.75;;;1.23;;
33902;SDS011;20194;50.950;5.346;2022-12-28T10:20:55;1.48;;;1.10;;
33902;SDS011;20194;50.950;5.346;2022-12-28T10:23:26;2.45;;;0.80;;
33902;SDS011;20194;50.950;5.346;2022-12-28T10:25:55;1.33;;;1.05;;
33902;SDS011;20194;50.950;5.346;2022-12-28T10:28:23;2.90;;;1.40;;
33902;SDS011;20194;50.950;5.346;2022-12-28T10:33:38;4.00;;;1.15;;
33902;SDS011;20194;50.950;5.346;2022-12-28T10:36:10;1.88;;;0.98;;
33902;SDS011;20194;50.950;5.346;2022-12-28T10:38:37;3.08;;;1.02;;
33902;SDS011;20194;50.950;5.346;2022-12-28T10:41:07;2.85;;;1.10;;
33902;SDS011;20194;50.950;5.346;2022-12-28T10:43:36;3.03;;;1.05;;
33902;SDS011;20194;50.950;5.346;2022-12-28T10:46:14;5.47;;;1.40;;
33902;SDS011;20194;50.950;5.346;2022-12-28T10:48:43;4.38;;;0.98;;
33902;SDS011;20194;50.950;5.346;2022-12-28T10:51:18;6.15;;;0.98;;
33902;SDS011;20194;50.950;5.346;2022-12-28T10:53:46;2.28;;;0.80;;
33902;SDS011;20194;50.950;5.346;2022-12-28T10:56:28;2.65;;;1.08;;
33902;SDS011;20194;50.950;5.346;2022-12-28T11:01:39;3.40;;;1.23;;
33902;SDS011;20194;50.950;5.346;2022-12-28T11:04:07;2.13;;;1.20;;
33902;SDS011;20194;50.950;5.346;2022-12-28T11:09:28;4.43;;;1.40;;
33902;SDS011;20194;50.950;5.346;2022-12-28T11:11:56;1.15;;;1.08;;
33902;SDS011;20194;50.950;5.346;2022-12-28T11:14:46;2.30;;;1.00;;
33902;SDS011;20194;50.950;5.346;2022-12-28T11:17:20;2.28;;;1.00;;
33902;SDS011;20194;50.950;5.346;2022-12-28T11:19:49;3.95;;;0.98;;
33902;SDS011;20194;50.950;5.346;2022-12-28T11:22:21;3.50;;;1.20;;
33902;SDS011;20194;50.950;5.346;2022-12-28T11:24:49;2.03;;;1.30;;
33902;SDS011;20194;50.950;5.346;2022-12-28T11:27:16;3.85;;;1.20;;
33902;SDS011;20194;50.950;5.346;2022-12-28T11:29:48;3.83;;;1.10;;
33902;SDS011;20194;50.950;5.346;2022-12-28T11:32:26;3.58;;;1.25;;
33902;SDS011;20194;50.950;5.346;2022-12-28T11:34:58;2.92;;;1.02;;
33902;SDS011;20194;50.950;5.346;2022-12-28T11:37:25;0.88;;;0.68;;
33902;SDS011;20194;50.950;5.346;2022-12-28T11:39:51;2.83;;;1.10;;
33902;SDS011;20194;50.950;5.346;2022-12-28T11:45:02;3.90;;;1.40;;
33902;SDS011;20194;50.950;5.346;2022-12-28T11:47:38;4.63;;;1.33;;
33902;SDS011;20194;50.950;5.346;2022-12-28T11:52:57;4.05;;;1.45;;
33902;SDS011;20194;50.950;5.346;2022-12-28T11:57:50;10.27;;;1.75;;
33902;SDS011;20194;50.950;5.346;2022-12-28T12:08:00;8.02;;;1.85;;
33902;SDS011;20194;50.950;5.346;2022-12-28T12:10:35;9.93;;;2.67;;
33902;SDS011;20194;50.950;5.346;2022-12-28T12:13:37;5.68;;;1.25;;
33902;SDS011;20194;50.950;5.346;2022-12-28T12:15:58;3.70;;;1.65;;
33902;SDS011;20194;50.950;5.346;2022-12-28T12:18:29;4.78;;;1.60;;
33902;SDS011;20194;50.950;5.346;2022-12-28T12:21:53;25.27;;;1.85;;
33902;SDS011;20194;50.950;5.346;2022-12-28T12:27:25;2.88;;;1.55;;
33902;SDS011;20194;50.950;5.346;2022-12-28T12:30:02;6.43;;;1.70;;
33902;SDS011;20194;50.950;5.346;2022-12-28T12:32:45;5.75;;;1.45;;
33902;SDS011;20194;50.950;5.346;2022-12-28T12:35:13;2.72;;;1.15;;
33902;SDS011;20194;50.950;5.346;2022-12-28T12:57:09;5.72;;;1.48;;
33902;SDS011;20194;50.950;5.346;2022-12-28T13:00:27;7.20;;;1.63;;
33902;SDS011;20194;50.950;5.346;2022-12-28T13:05:17;4.95;;;1.45;;
33902;SDS011;20194;50.950;5.346;2022-12-28T13:07:46;2.75;;;1.58;;
33902;SDS011;20194;50.950;5.346;2022-12-28T13:10:15;2.88;;;2.03;;
33902;SDS011;20194;50.950;5.346;2022-12-28T13:12:47;9.52;;;1.73;;
33902;SDS011;20194;50.950;5.346;2022-12-28T13:15:16;4.50;;;2.00;;
33902;SDS011;20194;50.950;5.346;2022-12-28T13:23:22;12.10;;;1.70;;
33902;SDS011;20194;50.950;5.346;2022-12-28T13:25:50;13.27;;;2.35;;
33902;SDS011;20194;50.950;5.346;2022-12-28T13:28:35;5.78;;;1.80;;
33902;SDS011;20194;50.950;5.346;2022-12-28T13:31:18;4.45;;;1.67;;
33902;SDS011;20194;50.950;5.346;2022-12-28T13:34:02;4.47;;;2.22;;
33902;SDS011;20194;50.950;5.346;2022-12-28T13:36:30;3.42;;;1.75;;
33902;SDS011;20194;50.950;5.346;2022-12-28T13:39:10;7.57;;;1.83;;
33902;SDS011;20194;50.950;5.346;2022-12-28T13:41:37;9.52;;;4.53;;
33902;SDS011;20194;50.950;5.346;2022-12-28T13:44:14;2.83;;;2.00;;
33902;SDS011;20194;50.950;5.346;2022-12-28T13:47:21;6.53;;;1.73;;
33902;SDS011;20194;50.950;5.346;2022-12-28T13:50:04;5.97;;;1.88;;
33902;SDS011;20194;50.950;5.346;2022-12-28T13:55:50;11.43;;;4.63;;
33902;SDS011;20194;50.950;5.346;2022-12-28T13:58:22;7.38;;;3.00;;
33902;SDS011;20194;50.950;5.346;2022-12-28T14:01:06;4.72;;;1.80;;
33902;SDS011;20194;50.950;5.346;2022-12-28T14:03:37;8.23;;;2.03;;
33902;SDS011;20194;50.950;5.346;2022-12-28T14:06:05;4.05;;;1.40;;
33902;SDS011;20194;50.950;5.346;2022-12-28T14:08:32;12.05;;;1.70;;
33902;SDS011;20194;50.950;5.346;2022-12-28T14:11:00;7.07;;;1.77;;
33902;SDS011;20194;50.950;5.346;2022-12-28T14:13:28;4.13;;;1.88;;
33902;SDS011;20194;50.950;5.346;2022-12-28T14:15:56;4.93;;;1.63;;
33902;SDS011;20194;50.950;5.346;2022-12-28T14:18:22;7.10;;;1.80;;
33902;SDS011;20194;50.950;5.346;2022-12-28T14:20:50;7.60;;;1.95;;
33902;SDS011;20194;50.950;5.346;2022-12-28T14:23:22;5.35;;;2.33;;
33902;SDS011;20194;50.950;5.346;2022-12-28T14:25:53;7.10;;;2.05;;
33902;SDS011;20194;50.950;5.346;2022-12-28T14:28:43;4.50;;;1.92;;
33902;SDS011;20194;50.950;5.346;2022-12-28T14:31:10;7.90;;;2.08;;
33902;SDS011;20194;50.950;5.346;2022-12-28T14:36:28;3.63;;;1.77;;
33902;SDS011;20194;50.950;5.346;2022-12-28T14:38:56;7.50;;;2.00;;
33902;SDS011;20194;50.950;5.346;2022-12-28T14:41:29;3.70;;;1.60;;
33902;SDS011;20194;50.950;5.346;2022-12-28T14:43:59;3.90;;;2.15;;
33902;SDS011;20194;50.950;5.346;2022-12-28T14:46:30;4.20;;;1.83;;
33902;SDS011;20194;50.950;5.346;2022-12-28T14:49:23;3.65;;;1.80;;
33902;SDS011;20194;50.950;5.346;2022-12-28T14:51:49;4.05;;;1.88;;
33902;SDS011;20194;50.950;5.346;2022-12-28T14:54:16;6.03;;;2.55;;
33902;SDS011;20194;50.950;5.346;2022-12-28T14:56:53;7.28;;;2.42;;
33902;SDS011;20194;50.950;5.346;2022-12-28T14:59:25;3.95;;;1.92;;
33902;SDS011;20194;50.950;5.346;2022-12-28T15:01:54;2.60;;;1.42;;
33902;SDS011;20194;50.950;5.346;2022-12-28T15:04:27;5.25;;;1.70;;
33902;SDS011;20194;50.950;5.346;2022-12-28T15:06:53;2.67;;;1.10;;
33902;SDS011;20194;50.950;5.346;2022-12-28T15:09:19;7.55;;;2.03;;
33902;SDS011;20194;50.950;5.346;2022-12-28T15:11:45;2.50;;;1.38;;
33902;SDS011;20194;50.950;5.346;2022-12-28T15:14:11;3.97;;;1.85;;
33902;SDS011;20194;50.950;5.346;2022-12-28T15:16:37;5.10;;;1.67;;
33902;SDS011;20194;50.950;5.346;2022-12-28T15:19:03;3.80;;;1.58;;
33902;SDS011;20194;50.950;5.346;2022-12-28T15:21:29;6.03;;;1.40;;
33902;SDS011;20194;50.950;5.346;2022-12-28T15:23:55;3.50;;;1.33;;
33902;SDS011;20194;50.950;5.346;2022-12-28T15:26:22;7.20;;;2.00;;
33902;SDS011;20194;50.950;5.346;2022-12-28T15:28:48;5.95;;;1.67;;
33902;SDS011;20194;50.950;5.346;2022-12-28T15:31:17;3.10;;;1.50;;
33902;SDS011;20194;50.950;5.346;2022-12-28T15:33:44;8.07;;;1.33;;
33902;SDS011;20194;50.950;5.346;2022-12-28T15:36:11;5.32;;;1.80;;
33902;SDS011;20194;50.950;5.346;2022-12-28T15:38:38;7.75;;;1.48;;
33902;SDS011;20194;50.950;5.346;2022-12-28T15:41:04;2.67;;;1.40;;
33902;SDS011;20194;50.950;5.346;2022-12-28T15:43:50;7.47;;;1.63;;
33902;SDS011;20194;50.950;5.346;2022-12-28T15:46:15;4.75;;;1.80;;
33902;SDS011;20194;50.950;5.346;2022-12-28T15:48:41;6.68;;;2.08;;
33902;SDS011;20194;50.950;5.346;2022-12-28T15:51:07;4.25;;;1.45;;
33902;SDS011;20194;50.950;5.346;2022-12-28T15:53:33;4.63;;;1.60;;
33902;SDS011;20194;50.950;5.346;2022-12-28T15:55:58;3.58;;;1.60;;
33902;SDS011;20194;50.950;5.346;2022-12-28T15:58:25;2.75;;;2.35;;
33902;SDS011;20194;50.950;5.346;2022-12-28T16:00:51;2.92;;;1.83;;
33902;SDS011;20194;50.950;5.346;2022-12-28T16:03:17;6.32;;;2.45;;
33902;SDS011;20194;50.950;5.346;2022-12-28T16:05:42;2.47;;;1.67;;
33902;SDS011;20194;50.950;5.346;2022-12-28T16:08:08;6.03;;;1.73;;
33902;SDS011;20194;50.950;5.346;2022-12-28T16:10:34;4.07;;;1.52;;
33902;SDS011;20194;50.950;5.346;2022-12-28T16:13:00;6.88;;;2.00;;
33902;SDS011;20194;50.950;5.346;2022-12-28T16:15:26;7.38;;;2.28;;
33902;SDS011;20194;50.950;5.346;2022-12-28T16:17:52;4.57;;;1.63;;
33902;SDS011;20194;50.950;5.346;2022-12-28T16:20:18;4.93;;;1.85;;
33902;SDS011;20194;50.950;5.346;2022-12-28T16:22:44;6.22;;;2.35;;
33902;SDS011;20194;50.950;5.346;2022-12-28T16:25:10;6.47;;;2.35;;
33902;SDS011;20194;50.950;5.346;2022-12-28T16:27:36;9.90;;;2.10;;
33902;SDS011;20194;50.950;5.346;2022-12-28T16:30:03;2.70;;;1.73;;
33902;SDS011;20194;50.950;5.346;2022-12-28T16:32:29;13.27;;;3.83;;
33902;SDS011;20194;50.950;5.346;2022-12-28T16:34:55;16.92;;;5.07;;
33902;SDS011;20194;50.950;5.346;2022-12-28T16:37:22;7.25;;;2.28;;
33902;SDS011;20194;50.950;5.346;2022-12-28T16:39:47;6.00;;;1.58;;
33902;SDS011;20194;50.950;5.346;2022-12-28T16:42:13;5.25;;;1.73;;